sensor_id;sensor_type;location;lat;lon;timestamp;P1;durP1;ratioP1;P2;durP2;ratioP2
14774;SDS011;7479;47.042;15.160;2024-02-15T08:20:09;16.87;;;6.90;;
14774;SDS011;7479;47.042;15.160;2024-02-15T08:25:05;14.77;;;7.73;;
14774;SDS011;7479;47.042;15.160;2024-02-15T08:30:02;16.70;;;8.13;;
14774;SDS011;7479;47.042;15.160;2024-02-15T08:35:00;29.57;;;8.17;;
14774;SDS011;7479;47.042;15.160;2024-02-15T08:39:58;17.83;;;6.73;;
14774;SDS011;7479;47.042;15.160;2024-02-15T08:44:51;11.30;;;6.07;;
14774;SDS011;7479;47.042;15.160;2024-02-15T08:49:45;15.33;;;5.87;;
14774;SDS011;7479;47.042;15.160;2024-02-15T08:54:39;10.53;;;6.30;;
14774;SDS011;7479;47.042;15.160;2024-02-15T08:59:35;13.43;;;6.03;;
14774;SDS011;7479;47.042;15.160;2024-02-15T09:04:28;16.87;;;6.57;;
14774;SDS011;7479;47.042;15.160;2024-02-15T09:09:22;12.47;;;6.13;;
14774;SDS011;7479;47.042;15.160;2024-02-15T09:14:16;10.73;;;5.33;;
14774;SDS011;7479;47.042;15.160;2024-02-15T09:19:11;10.70;;;5.77;;
14774;SDS011;7479;47.042;15.160;2024-02-15T09:24:06;10.67;;;5.53;;
14774;SDS011;7479;47.042;15.160;2024-02-15T09:29:00;9.83;;;5.23;;
14774;SDS011;7479;47.042;15.160;2024-02-15T09:33:58;11.10;;;5.53;;
14774;SDS011;7479;47.042;15.160;2024-02-15T09:38:54;13.37;;;5.47;;
14774;SDS011;7479;47.042;15.160;2024-02-15T09:43:48;12.93;;;5.00;;
14774;SDS011;7479;47.042;15.160;2024-02-15T09:48:43;8.97;;;4.77;;
14774;SDS011;7479;47.042;15.160;2024-02-15T09:53:50;6.33;;;3.70;;
14774;SDS011;7479;47.042;15.160;2024-02-15T09:58:46;5.07;;;3.13;;
14774;SDS011;7479;47.042;15.160;2024-02-15T10:03:42;4.00;;;2.47;;
14774;SDS011;7479;47.042;15.160;2024-02-15T10:08:37;14.30;;;4.50;;
14774;SDS011;7479;47.042;15.160;2024-02-15T10:13:31;8.63;;;3.80;;
14774;SDS011;7479;47.042;15.160;2024-02-15T10:18:26;10.13;;;4.13;;
14774;SDS011;7479;47.042;15.160;2024-02-15T10:23:20;17.93;;;4.63;;
14774;SDS011;7479;47.042;15.160;2024-02-15T10:28:14;9.23;;;3.30;;
14774;SDS011;7479;47.042;15.160;2024-02-15T10:33:17;6.50;;;2.73;;
14774;SDS011;7479;47.042;15.160;2024-02-15T10:38:14;5.23;;;1.83;;
14774;SDS011;7479;47.042;15.160;2024-02-15T10:43:10;5.07;;;1.97;;
14774;SDS011;7479;47.042;15.160;2024-02-15T10:48:05;3.80;;;1.80;;
14774;SDS011;7479;47.042;15.160;2024-02-15T10:53:01;3.60;;;2.47;;
14774;SDS011;7479;47.042;15.160;2024-02-15T10:58:05;4.30;;;2.30;;
14774;SDS011;7479;47.042;15.160;2024-02-15T11:03:00;3.50;;;2.00;;
14774;SDS011;7479;47.042;15.160;2024-02-15T11:07:56;2.57;;;2.20;;
14774;SDS011;7479;47.042;15.160;2024-02-15T11:12:50;6.13;;;2.43;;
14774;SDS011;7479;47.042;15.160;2024-02-15T11:17:47;3.60;;;2.40;;
14774;SDS011;7479;47.042;15.160;2024-02-15T11:22:46;3.87;;;2.10;;
14774;SDS011;7479;47.042;15.160;2024-02-15T11:27:49;4.63;;;2.50;;
14774;SDS011;7479;47.042;15.160;2024-02-15T11:32:47;4.63;;;2.50;;
14774;SDS011;7479;47.042;15.160;2024-02-15T11:37:50;3.00;;;2.70;;
14774;SDS011;7479;47.042;15.160;2024-02-15T11:43:01;3.57;;;2.10;;
14774;SDS011;7479;47.042;15.160;2024-02-15T11:47:58;2.57;;;2.03;;
14774;SDS011;7479;47.042;15.160;2024-02-15T11:52:52;3.43;;;1.93;;
14774;SDS011;7479;47.042;15.160;2024-02-15T11:58:01;2.63;;;1.77;;
14774;SDS011;7479;47.042;15.160;2024-02-15T12:03:00;5.43;;;1.70;;
14774;SDS011;7479;47.042;15.160;2024-02-15T12:08:11;2.87;;;1.60;;
14774;SDS011;7479;47.042;15.160;2024-02-15T12:13:37;2.27;;;1.60;;
14774;SDS011;7479;47.042;15.160;2024-02-15T12:18:49;2.53;;;1.60;;
14774;SDS011;7479;47.042;15.160;2024-02-15T12:23:46;4.83;;;2.10;;
14774;SDS011;7479;47.042;15.160;2024-02-15T12:28:40;3.00;;;1.73;;
14774;SDS011;7479;47.042;15.160;2024-02-15T12:33:38;2.17;;;1.57;;
14774;SDS011;7479;47.042;15.160;2024-02-15T12:38:34;5.97;;;1.63;;
14774;SDS011;7479;47.042;15.160;2024-02-15T12:43:30;2.00;;;1.63;;
14774;SDS011;7479;47.042;15.160;2024-02-15T12:48:24;5.33;;;2.50;;
14774;SDS011;7479;47.042;15.160;2024-02-15T12:53:21;5.07;;;2.27;;
14774;SDS011;7479;47.042;15.160;2024-02-15T12:58:17;2.25;;;1.90;;
14774;SDS011;7479;47.042;15.160;2024-02-15T13:03:11;4.85;;;2.10;;
14774;SDS011;7479;47.042;15.160;2024-02-15T13:08:08;3.13;;;1.70;;
14774;SDS011;7479;47.042;15.160;2024-02-15T13:13:06;2.25;;;1.80;;
14774;SDS011;7479;47.042;15.160;2024-02-15T13:18:04;4.95;;;2.00;;
14774;SDS011;7479;47.042;15.160;2024-02-15T13:23:03;2.03;;;1.45;;
14774;SDS011;7479;47.042;15.160;2024-02-15T13:28:02;4.20;;;1.90;;
14774;SDS011;7479;47.042;15.160;2024-02-15T13:32:56;6.00;;;1.80;;
14774;SDS011;7479;47.042;15.160;2024-02-15T13:37:55;3.13;;;1.90;;
14774;SDS011;7479;47.042;15.160;2024-02-15T13:42:50;5.43;;;1.80;;
14774;SDS011;7479;47.042;15.160;2024-02-15T13:47:47;4.45;;;2.00;;
14774;SDS011;7479;47.042;15.160;2024-02-15T13:52:44;2.38;;;2.00;;
14774;SDS011;7479;47.042;15.160;2024-02-15T13:57:41;3.42;;;2.22;;
14774;SDS011;7479;47.042;15.160;2024-02-15T14:02:35;6.53;;;2.85;;
14774;SDS011;7479;47.042;15.160;2024-02-15T14:07:30;1.67;;;1.55;;
14774;SDS011;7479;47.042;15.160;2024-02-15T14:12:24;4.20;;;1.90;;
14774;SDS011;7479;47.042;15.160;2024-02-15T14:17:19;5.20;;;2.08;;
14774;SDS011;7479;47.042;15.160;2024-02-15T14:22:13;2.67;;;2.00;;
14774;SDS011;7479;47.042;15.160;2024-02-15T14:27:07;4.32;;;2.10;;
14774;SDS011;7479;47.042;15.160;2024-02-15T14:32:02;3.40;;;2.10;;
14774;SDS011;7479;47.042;15.160;2024-02-15T14:37:15;2.13;;;1.80;;
14774;SDS011;7479;47.042;15.160;2024-02-15T14:42:11;5.03;;;1.90;;
14774;SDS011;7479;47.042;15.160;2024-02-15T14:47:08;7.50;;;2.47;;
14774;SDS011;7479;47.042;15.160;2024-02-15T14:52:03;4.65;;;2.30;;
14774;SDS011;7479;47.042;15.160;2024-02-15T14:56:59;9.33;;;2.40;;
14774;SDS011;7479;47.042;15.160;2024-02-15T15:01:53;24.23;;;3.80;;
14774;SDS011;7479;47.042;15.160;2024-02-15T15:06:53;4.23;;;1.87;;
14774;SDS011;7479;47.042;15.160;2024-02-15T15:12:14;20.93;;;2.90;;
14774;SDS011;7479;47.042;15.160;2024-02-15T15:17:25;26.60;;;3.40;;
14774;SDS011;7479;47.042;15.160;2024-02-15T15:22:19;17.40;;;3.80;;
14774;SDS011;7479;47.042;15.160;2024-02-15T15:27:15;20.60;;;5.70;;
14774;SDS011;7479;47.042;15.160;2024-02-15T15:32:10;13.60;;;5.73;;
14774;SDS011;7479;47.042;15.160;2024-02-15T15:37:04;11.47;;;5.23;;
14774;SDS011;7479;47.042;15.160;2024-02-15T15:41:59;9.33;;;6.00;;
14774;SDS011;7479;47.042;15.160;2024-02-15T15:46:55;9.87;;;6.07;;
14774;SDS011;7479;47.042;15.160;2024-02-15T15:51:50;9.63;;;4.70;;
14774;SDS011;7479;47.042;15.160;2024-02-15T15:56:45;8.43;;;5.07;;
14774;SDS011;7479;47.042;15.160;2024-02-15T16:01:39;13.80;;;6.47;;
14774;SDS011;7479;47.042;15.160;2024-02-15T16:06:41;15.73;;;6.53;;
14774;SDS011;7479;47.042;15.160;2024-02-15T16:11:35;15.90;;;5.73;;
14774;SDS011;7479;47.042;15.160;2024-02-15T16:16:30;24.20;;;5.03;;
14774;SDS011;7479;47.042;15.160;2024-02-15T16:21:24;28.70;;;5.33;;
14774;SDS011;7479;47.042;15.160;2024-02-15T16:26:20;14.87;;;5.43;;
14774;SDS011;7479;47.042;15.160;2024-02-15T16:31:14;19.73;;;5.33;;
14774;SDS011;7479;47.042;15.160;2024-02-15T16:36:08;15.87;;;5.40;;
14774;SDS011;7479;47.042;15.160;2024-02-15T16:41:02;11.47;;;5.27;;
14774;SDS011;7479;47.042;15.160;2024-02-15T16:45:59;7.10;;;4.60;;
14774;SDS011;7479;47.042;15.160;2024-02-15T16:50:55;8.50;;;4.80;;
14774;SDS011;7479;47.042;15.160;2024-02-15T16:55:51;15.37;;;5.13;;
14774;SDS011;7479;47.042;15.160;2024-02-15T17:00:44;8.57;;;5.00;;
14774;SDS011;7479;47.042;15.160;2024-02-15T17:05:40;9.00;;;5.07;;
14774;SDS011;7479;47.042;15.160;2024-02-15T17:10:34;7.00;;;4.73;;
14774;SDS011;7479;47.042;15.160;2024-02-15T17:15:29;8.30;;;4.93;;
14774;SDS011;7479;47.042;15.160;2024-02-15T17:20:23;9.50;;;5.37;;
14774;SDS011;7479;47.042;15.160;2024-02-15T17:25:19;12.80;;;8.83;;
14774;SDS011;7479;47.042;15.160;2024-02-15T17:30:17;12.67;;;8.10;;
14774;SDS011;7479;47.042;15.160;2024-02-15T17:35:12;11.93;;;7.40;;
14774;SDS011;7479;47.042;15.160;2024-02-15T17:40:09;15.70;;;10.47;;
14774;SDS011;7479;47.042;15.160;2024-02-15T17:45:06;21.90;;;10.47;;
14774;SDS011;7479;47.042;15.160;2024-02-15T17:56:27;15.57;;;6.43;;
